Disclaimer

Please do not use the information listed here in-flight or in-navigation, as they are not provided to us by the airports but are provided by volunteers, so they might be outdated.

Search


Regions


Airport information page

Radio informations:
Common traffic adv. frequency (CTAF) - 122.8 MHz

Airport informations:
Latitude: 26° 11' 54.79" N
Longitude: 036° 28' 34.97" E
Elevation: 66 feet - 20 meters
Operating hours: 24 hour operations
Operating agency: Civil government, landing fees and diplomatic clearance may be required
Timezone: UTC+3
Fuel: Jet A1, without icing nhibitor.

Runway information:
15/33 - 10007 x 148 feet< - >3050 x 45 meters

Recent METARs:
OEWJ 151100Z 26009KT 9999 SCT030 24/13 Q1011 NOSIG
OEWJ 151200Z 27008KT 9999 FEW030 SCT040 25/18 Q1011 NOSIG
OEWJ 151200Z 27008KT 9999 FEW030 SCT040 25/18 Q1011 NOSIG

Airport on the map: